sensor_id;sensor_type;location;lat;lon;timestamp;P1;durP1;ratioP1;P2;durP2;ratioP2
69358;SDS011;56520;49.066;8.660;2024-01-30T00:01:55;7.20;;;2.85;;
69358;SDS011;56520;49.066;8.660;2024-01-30T00:04:20;10.32;;;2.47;;
69358;SDS011;56520;49.066;8.660;2024-01-30T00:06:46;5.00;;;2.20;;
69358;SDS011;56520;49.066;8.660;2024-01-30T00:11:37;6.83;;;2.40;;
69358;SDS011;56520;49.066;8.660;2024-01-30T00:14:03;3.95;;;1.55;;
69358;SDS011;56520;49.066;8.660;2024-01-30T00:16:29;6.57;;;2.22;;
69358;SDS011;56520;49.066;8.660;2024-01-30T00:18:55;6.32;;;2.22;;
69358;SDS011;56520;49.066;8.660;2024-01-30T00:21:21;6.55;;;2.28;;
69358;SDS011;56520;49.066;8.660;2024-01-30T00:23:46;5.30;;;2.17;;
69358;SDS011;56520;49.066;8.660;2024-01-30T00:26:12;6.90;;;2.95;;
69358;SDS011;56520;49.066;8.660;2024-01-30T00:28:39;11.93;;;2.08;;
69358;SDS011;56520;49.066;8.660;2024-01-30T00:31:05;5.40;;;2.03;;
69358;SDS011;56520;49.066;8.660;2024-01-30T00:33:31;13.45;;;2.30;;
69358;SDS011;56520;49.066;8.660;2024-01-30T00:35:56;6.93;;;2.13;;
69358;SDS011;56520;49.066;8.660;2024-01-30T00:38:21;6.53;;;2.63;;
69358;SDS011;56520;49.066;8.660;2024-01-30T00:40:47;6.03;;;1.63;;
69358;SDS011;56520;49.066;8.660;2024-01-30T00:43:13;6.30;;;2.33;;
69358;SDS011;56520;49.066;8.660;2024-01-30T00:45:38;5.20;;;1.67;;
69358;SDS011;56520;49.066;8.660;2024-01-30T00:48:04;5.57;;;2.22;;
69358;SDS011;56520;49.066;8.660;2024-01-30T00:50:29;5.07;;;1.92;;
69358;SDS011;56520;49.066;8.660;2024-01-30T00:52:55;9.35;;;2.28;;
69358;SDS011;56520;49.066;8.660;2024-01-30T00:57:45;3.33;;;1.45;;
69358;SDS011;56520;49.066;8.660;2024-01-30T01:00:12;4.85;;;1.67;;
69358;SDS011;56520;49.066;8.660;2024-01-30T01:05:06;9.90;;;1.35;;
69358;SDS011;56520;49.066;8.660;2024-01-30T01:07:31;4.57;;;1.65;;
69358;SDS011;56520;49.066;8.660;2024-01-30T01:09:57;4.78;;;2.03;;
69358;SDS011;56520;49.066;8.660;2024-01-30T01:12:22;4.30;;;1.70;;
69358;SDS011;56520;49.066;8.660;2024-01-30T01:14:48;5.80;;;1.70;;
69358;SDS011;56520;49.066;8.660;2024-01-30T01:17:13;5.65;;;1.80;;
69358;SDS011;56520;49.066;8.660;2024-01-30T01:19:38;5.22;;;2.28;;
69358;SDS011;56520;49.066;8.660;2024-01-30T01:22:04;4.65;;;1.77;;
69358;SDS011;56520;49.066;8.660;2024-01-30T01:24:32;4.93;;;1.80;;
69358;SDS011;56520;49.066;8.660;2024-01-30T01:26:58;4.38;;;1.75;;
69358;SDS011;56520;49.066;8.660;2024-01-30T01:29:23;4.05;;;1.45;;
69358;SDS011;56520;49.066;8.660;2024-01-30T01:31:54;3.97;;;1.38;;
69358;SDS011;56520;49.066;8.660;2024-01-30T01:34:19;7.30;;;2.05;;
69358;SDS011;56520;49.066;8.660;2024-01-30T01:36:45;4.82;;;1.80;;
69358;SDS011;56520;49.066;8.660;2024-01-30T01:39:10;3.85;;;1.65;;
69358;SDS011;56520;49.066;8.660;2024-01-30T01:41:36;5.18;;;1.75;;
69358;SDS011;56520;49.066;8.660;2024-01-30T01:44:01;5.07;;;1.60;;
69358;SDS011;56520;49.066;8.660;2024-01-30T01:46:27;5.78;;;1.83;;
69358;SDS011;56520;49.066;8.660;2024-01-30T01:48:55;2.72;;;1.27;;
69358;SDS011;56520;49.066;8.660;2024-01-30T01:51:21;4.80;;;1.58;;
69358;SDS011;56520;49.066;8.660;2024-01-30T01:53:49;3.80;;;1.60;;
69358;SDS011;56520;49.066;8.660;2024-01-30T01:56:15;7.38;;;2.25;;
69358;SDS011;56520;49.066;8.660;2024-01-30T01:58:41;4.75;;;1.83;;
69358;SDS011;56520;49.066;8.660;2024-01-30T02:01:09;5.30;;;2.30;;
69358;SDS011;56520;49.066;8.660;2024-01-30T02:03:35;3.83;;;1.50;;
69358;SDS011;56520;49.066;8.660;2024-01-30T02:06:01;2.90;;;1.33;;
69358;SDS011;56520;49.066;8.660;2024-01-30T02:08:27;3.80;;;1.88;;
69358;SDS011;56520;49.066;8.660;2024-01-30T02:10:53;7.13;;;2.35;;
69358;SDS011;56520;49.066;8.660;2024-01-30T02:13:19;3.58;;;1.45;;
69358;SDS011;56520;49.066;8.660;2024-01-30T02:15:48;4.85;;;1.88;;
69358;SDS011;56520;49.066;8.660;2024-01-30T02:18:15;4.78;;;1.38;;
69358;SDS011;56520;49.066;8.660;2024-01-30T02:20:40;4.55;;;1.92;;
69358;SDS011;56520;49.066;8.660;2024-01-30T02:25:35;3.63;;;1.58;;
69358;SDS011;56520;49.066;8.660;2024-01-30T02:28:03;2.78;;;1.27;;
69358;SDS011;56520;49.066;8.660;2024-01-30T02:30:29;4.20;;;1.83;;
69358;SDS011;56520;49.066;8.660;2024-01-30T02:32:54;13.50;;;1.23;;
69358;SDS011;56520;49.066;8.660;2024-01-30T02:35:20;2.50;;;1.23;;
69358;SDS011;56520;49.066;8.660;2024-01-30T02:37:45;2.25;;;0.93;;
69358;SDS011;56520;49.066;8.660;2024-01-30T02:40:10;4.13;;;1.50;;
69358;SDS011;56520;49.066;8.660;2024-01-30T02:42:36;2.75;;;1.15;;
69358;SDS011;56520;49.066;8.660;2024-01-30T02:45:01;3.42;;;1.42;;
69358;SDS011;56520;49.066;8.660;2024-01-30T02:47:27;4.00;;;1.27;;
69358;SDS011;56520;49.066;8.660;2024-01-30T02:49:52;2.90;;;1.30;;
69358;SDS011;56520;49.066;8.660;2024-01-30T02:52:18;3.22;;;1.30;;
69358;SDS011;56520;49.066;8.660;2024-01-30T02:54:44;3.25;;;1.40;;
69358;SDS011;56520;49.066;8.660;2024-01-30T02:57:09;2.65;;;1.40;;
69358;SDS011;56520;49.066;8.660;2024-01-30T02:59:35;3.50;;;1.70;;
69358;SDS011;56520;49.066;8.660;2024-01-30T03:04:26;2.08;;;1.02;;
69358;SDS011;56520;49.066;8.660;2024-01-30T03:06:51;4.70;;;1.20;;
69358;SDS011;56520;49.066;8.660;2024-01-30T03:09:18;8.30;;;1.92;;
69358;SDS011;56520;49.066;8.660;2024-01-30T03:11:43;3.00;;;1.27;;
69358;SDS011;56520;49.066;8.660;2024-01-30T03:14:08;2.90;;;1.35;;
69358;SDS011;56520;49.066;8.660;2024-01-30T03:16:36;6.07;;;1.85;;
69358;SDS011;56520;49.066;8.660;2024-01-30T03:19:02;3.15;;;1.25;;
69358;SDS011;56520;49.066;8.660;2024-01-30T03:21:28;3.40;;;1.30;;
69358;SDS011;56520;49.066;8.660;2024-01-30T03:23:54;3.00;;;1.17;;
69358;SDS011;56520;49.066;8.660;2024-01-30T03:26:19;3.03;;;1.25;;
69358;SDS011;56520;49.066;8.660;2024-01-30T03:28:45;3.35;;;1.23;;
69358;SDS011;56520;49.066;8.660;2024-01-30T03:31:10;3.08;;;1.38;;
69358;SDS011;56520;49.066;8.660;2024-01-30T03:33:37;3.08;;;1.00;;
69358;SDS011;56520;49.066;8.660;2024-01-30T03:36:04;4.55;;;1.90;;
69358;SDS011;56520;49.066;8.660;2024-01-30T03:38:30;4.47;;;1.63;;
69358;SDS011;56520;49.066;8.660;2024-01-30T03:40:57;2.25;;;0.90;;
69358;SDS011;56520;49.066;8.660;2024-01-30T03:43:23;3.50;;;1.60;;
69358;SDS011;56520;49.066;8.660;2024-01-30T03:45:48;1.73;;;1.00;;
69358;SDS011;56520;49.066;8.660;2024-01-30T03:48:14;3.47;;;1.38;;
69358;SDS011;56520;49.066;8.660;2024-01-30T03:50:39;2.47;;;0.95;;
69358;SDS011;56520;49.066;8.660;2024-01-30T03:53:04;1.92;;;1.00;;
69358;SDS011;56520;49.066;8.660;2024-01-30T03:55:30;2.38;;;1.05;;
69358;SDS011;56520;49.066;8.660;2024-01-30T03:57:55;3.85;;;1.58;;
69358;SDS011;56520;49.066;8.660;2024-01-30T04:00:21;9.60;;;1.40;;
69358;SDS011;56520;49.066;8.660;2024-01-30T04:02:46;3.08;;;1.27;;
69358;SDS011;56520;49.066;8.660;2024-01-30T04:05:11;3.33;;;1.30;;
69358;SDS011;56520;49.066;8.660;2024-01-30T04:07:37;2.03;;;0.73;;
69358;SDS011;56520;49.066;8.660;2024-01-30T04:10:02;2.65;;;1.00;;
69358;SDS011;56520;49.066;8.660;2024-01-30T04:12:30;2.30;;;1.08;;
69358;SDS011;56520;49.066;8.660;2024-01-30T04:14:56;4.50;;;1.73;;
69358;SDS011;56520;49.066;8.660;2024-01-30T04:17:21;3.17;;;1.10;;
69358;SDS011;56520;49.066;8.660;2024-01-30T04:19:47;2.65;;;1.13;;
69358;SDS011;56520;49.066;8.660;2024-01-30T04:22:12;3.58;;;1.58;;
69358;SDS011;56520;49.066;8.660;2024-01-30T04:24:37;4.28;;;1.65;;
69358;SDS011;56520;49.066;8.660;2024-01-30T04:27:03;4.88;;;1.70;;
69358;SDS011;56520;49.066;8.660;2024-01-30T04:29:29;4.00;;;1.60;;
69358;SDS011;56520;49.066;8.660;2024-01-30T04:31:54;5.40;;;1.80;;
69358;SDS011;56520;49.066;8.660;2024-01-30T04:34:20;3.40;;;1.40;;
69358;SDS011;56520;49.066;8.660;2024-01-30T04:36:45;3.75;;;1.73;;
69358;SDS011;56520;49.066;8.660;2024-01-30T04:39:11;5.22;;;1.90;;
69358;SDS011;56520;49.066;8.660;2024-01-30T04:41:37;3.63;;;1.42;;
69358;SDS011;56520;49.066;8.660;2024-01-30T04:44:03;4.15;;;1.40;;
69358;SDS011;56520;49.066;8.660;2024-01-30T04:46:28;3.38;;;1.60;;
69358;SDS011;56520;49.066;8.660;2024-01-30T04:48:54;5.70;;;2.20;;
69358;SDS011;56520;49.066;8.660;2024-01-30T04:51:19;4.50;;;2.17;;
69358;SDS011;56520;49.066;8.660;2024-01-30T04:53:44;2.72;;;1.38;;
69358;SDS011;56520;49.066;8.660;2024-01-30T04:56:10;5.43;;;2.33;;
69358;SDS011;56520;49.066;8.660;2024-01-30T04:58:35;3.05;;;1.15;;
69358;SDS011;56520;49.066;8.660;2024-01-30T05:01:01;3.97;;;1.70;;
69358;SDS011;56520;49.066;8.660;2024-01-30T05:05:52;6.50;;;1.80;;
69358;SDS011;56520;49.066;8.660;2024-01-30T05:08:18;3.50;;;1.40;;
69358;SDS011;56520;49.066;8.660;2024-01-30T05:10:43;4.07;;;1.88;;
69358;SDS011;56520;49.066;8.660;2024-01-30T05:13:09;5.65;;;2.33;;
69358;SDS011;56520;49.066;8.660;2024-01-30T05:15:35;6.30;;;1.67;;
69358;SDS011;56520;49.066;8.660;2024-01-30T05:18:00;5.63;;;1.95;;
69358;SDS011;56520;49.066;8.660;2024-01-30T05:20:26;5.63;;;1.85;;
69358;SDS011;56520;49.066;8.660;2024-01-30T05:22:54;4.40;;;1.70;;
69358;SDS011;56520;49.066;8.660;2024-01-30T05:25:20;4.40;;;1.88;;
69358;SDS011;56520;49.066;8.660;2024-01-30T05:27:45;3.55;;;1.60;;
69358;SDS011;56520;49.066;8.660;2024-01-30T05:30:11;2.60;;;1.33;;
69358;SDS011;56520;49.066;8.660;2024-01-30T05:32:36;4.45;;;1.77;;
69358;SDS011;56520;49.066;8.660;2024-01-30T05:35:02;4.13;;;1.67;;
69358;SDS011;56520;49.066;8.660;2024-01-30T05:37:28;2.90;;;1.15;;
69358;SDS011;56520;49.066;8.660;2024-01-30T05:39:53;5.20;;;1.92;;
69358;SDS011;56520;49.066;8.660;2024-01-30T05:42:18;6.03;;;1.95;;
69358;SDS011;56520;49.066;8.660;2024-01-30T05:44:44;3.08;;;1.25;;
69358;SDS011;56520;49.066;8.660;2024-01-30T05:47:09;5.82;;;1.88;;
69358;SDS011;56520;49.066;8.660;2024-01-30T05:49:34;2.90;;;1.27;;
69358;SDS011;56520;49.066;8.660;2024-01-30T05:52:01;4.35;;;1.83;;
69358;SDS011;56520;49.066;8.660;2024-01-30T05:54:28;4.82;;;1.88;;
69358;SDS011;56520;49.066;8.660;2024-01-30T05:56:53;8.63;;;1.95;;
69358;SDS011;56520;49.066;8.660;2024-01-30T05:59:18;5.60;;;1.90;;
69358;SDS011;56520;49.066;8.660;2024-01-30T06:01:47;5.75;;;2.05;;
69358;SDS011;56520;49.066;8.660;2024-01-30T06:04:13;6.28;;;2.25;;
69358;SDS011;56520;49.066;8.660;2024-01-30T06:06:39;6.95;;;3.17;;
69358;SDS011;56520;49.066;8.660;2024-01-30T06:09:05;11.32;;;5.18;;
69358;SDS011;56520;49.066;8.660;2024-01-30T06:11:30;6.35;;;2.90;;
69358;SDS011;56520;49.066;8.660;2024-01-30T06:13:56;8.38;;;3.20;;
69358;SDS011;56520;49.066;8.660;2024-01-30T06:16:21;12.40;;;5.60;;
69358;SDS011;56520;49.066;8.660;2024-01-30T06:21:13;3.30;;;1.58;;
69358;SDS011;56520;49.066;8.660;2024-01-30T06:23:38;5.80;;;2.13;;
69358;SDS011;56520;49.066;8.660;2024-01-30T06:26:04;5.22;;;2.72;;
69358;SDS011;56520;49.066;8.660;2024-01-30T06:28:31;5.13;;;1.90;;
69358;SDS011;56520;49.066;8.660;2024-01-30T06:30:57;4.63;;;1.67;;
69358;SDS011;56520;49.066;8.660;2024-01-30T06:33:22;4.00;;;1.88;;
69358;SDS011;56520;49.066;8.660;2024-01-30T06:35:47;5.78;;;1.77;;
69358;SDS011;56520;49.066;8.660;2024-01-30T06:38:13;3.20;;;1.50;;
69358;SDS011;56520;49.066;8.660;2024-01-30T06:40:40;5.28;;;1.58;;
69358;SDS011;56520;49.066;8.660;2024-01-30T06:45:32;5.05;;;2.10;;
69358;SDS011;56520;49.066;8.660;2024-01-30T06:47:59;4.88;;;1.98;;
69358;SDS011;56520;49.066;8.660;2024-01-30T06:50:24;9.10;;;2.33;;
69358;SDS011;56520;49.066;8.660;2024-01-30T06:52:50;7.65;;;2.78;;
69358;SDS011;56520;49.066;8.660;2024-01-30T06:55:16;5.85;;;2.70;;
69358;SDS011;56520;49.066;8.660;2024-01-30T06:57:41;7.00;;;2.17;;
69358;SDS011;56520;49.066;8.660;2024-01-30T07:00:06;7.75;;;3.15;;
69358;SDS011;56520;49.066;8.660;2024-01-30T07:02:32;11.05;;;5.95;;
69358;SDS011;56520;49.066;8.660;2024-01-30T07:04:58;8.40;;;2.95;;
69358;SDS011;56520;49.066;8.660;2024-01-30T07:07:23;6.13;;;2.80;;
69358;SDS011;56520;49.066;8.660;2024-01-30T07:09:49;7.90;;;3.05;;
69358;SDS011;56520;49.066;8.660;2024-01-30T07:12:17;7.10;;;3.10;;
69358;SDS011;56520;49.066;8.660;2024-01-30T07:14:43;8.20;;;2.58;;
69358;SDS011;56520;49.066;8.660;2024-01-30T07:17:08;7.80;;;3.88;;
69358;SDS011;56520;49.066;8.660;2024-01-30T07:19:34;8.05;;;3.30;;
69358;SDS011;56520;49.066;8.660;2024-01-30T07:22:00;9.77;;;4.85;;
69358;SDS011;56520;49.066;8.660;2024-01-30T07:26:51;7.20;;;2.23;;
69358;SDS011;56520;49.066;8.660;2024-01-30T07:31:42;8.33;;;3.00;;
69358;SDS011;56520;49.066;8.660;2024-01-30T07:34:08;7.32;;;3.15;;
69358;SDS011;56520;49.066;8.660;2024-01-30T07:36:34;11.05;;;4.68;;
69358;SDS011;56520;49.066;8.660;2024-01-30T07:38:59;10.55;;;2.80;;
69358;SDS011;56520;49.066;8.660;2024-01-30T07:41:25;5.68;;;2.40;;
69358;SDS011;56520;49.066;8.660;2024-01-30T07:43:50;6.82;;;3.03;;
69358;SDS011;56520;49.066;8.660;2024-01-30T07:46:16;7.57;;;3.15;;
69358;SDS011;56520;49.066;8.660;2024-01-30T07:48:41;8.60;;;4.07;;
69358;SDS011;56520;49.066;8.660;2024-01-30T07:51:07;13.55;;;4.78;;
69358;SDS011;56520;49.066;8.660;2024-01-30T07:53:32;9.63;;;3.05;;
69358;SDS011;56520;49.066;8.660;2024-01-30T07:55:58;11.70;;;3.08;;
69358;SDS011;56520;49.066;8.660;2024-01-30T07:58:23;8.07;;;3.65;;
69358;SDS011;56520;49.066;8.660;2024-01-30T08:00:49;6.25;;;3.28;;
69358;SDS011;56520;49.066;8.660;2024-01-30T08:03:14;14.23;;;3.63;;
69358;SDS011;56520;49.066;8.660;2024-01-30T08:05:41;7.70;;;2.90;;
69358;SDS011;56520;49.066;8.660;2024-01-30T08:08:07;9.10;;;2.55;;
69358;SDS011;56520;49.066;8.660;2024-01-30T08:10:32;6.40;;;2.50;;
69358;SDS011;56520;49.066;8.660;2024-01-30T08:12:58;6.25;;;2.38;;
69358;SDS011;56520;49.066;8.660;2024-01-30T08:15:23;7.90;;;3.33;;
69358;SDS011;56520;49.066;8.660;2024-01-30T08:17:48;7.85;;;3.60;;
69358;SDS011;56520;49.066;8.660;2024-01-30T08:20:14;8.20;;;3.63;;
69358;SDS011;56520;49.066;8.660;2024-01-30T08:22:39;7.88;;;3.92;;
69358;SDS011;56520;49.066;8.660;2024-01-30T08:25:05;13.88;;;4.32;;
69358;SDS011;56520;49.066;8.660;2024-01-30T08:27:32;13.07;;;4.15;;
69358;SDS011;56520;49.066;8.660;2024-01-30T08:29:57;8.23;;;3.53;;
69358;SDS011;56520;49.066;8.660;2024-01-30T08:32:23;9.77;;;3.22;;
69358;SDS011;56520;49.066;8.660;2024-01-30T08:37:14;6.25;;;2.58;;
69358;SDS011;56520;49.066;8.660;2024-01-30T08:39:41;7.28;;;2.85;;
69358;SDS011;56520;49.066;8.660;2024-01-30T08:42:07;6.70;;;2.35;;
69358;SDS011;56520;49.066;8.660;2024-01-30T08:46:58;5.83;;;2.30;;
69358;SDS011;56520;49.066;8.660;2024-01-30T08:51:49;7.13;;;2.47;;
69358;SDS011;56520;49.066;8.660;2024-01-30T08:54:15;7.82;;;2.72;;
69358;SDS011;56520;49.066;8.660;2024-01-30T08:56:40;6.63;;;3.30;;
69358;SDS011;56520;49.066;8.660;2024-01-30T08:59:06;8.98;;;3.38;;
69358;SDS011;56520;49.066;8.660;2024-01-30T09:01:31;7.65;;;3.40;;
69358;SDS011;56520;49.066;8.660;2024-01-30T09:03:57;9.30;;;3.60;;
69358;SDS011;56520;49.066;8.660;2024-01-30T09:06:22;10.15;;;3.60;;
69358;SDS011;56520;49.066;8.660;2024-01-30T09:08:49;7.68;;;3.15;;
69358;SDS011;56520;49.066;8.660;2024-01-30T09:11:14;7.47;;;3.60;;
69358;SDS011;56520;49.066;8.660;2024-01-30T09:13:40;7.15;;;3.10;;
69358;SDS011;56520;49.066;8.660;2024-01-30T09:16:06;10.10;;;4.05;;
69358;SDS011;56520;49.066;8.660;2024-01-30T09:18:32;7.85;;;3.00;;
69358;SDS011;56520;49.066;8.660;2024-01-30T09:20:58;8.40;;;3.20;;
69358;SDS011;56520;49.066;8.660;2024-01-30T09:25:49;7.68;;;2.83;;
69358;SDS011;56520;49.066;8.660;2024-01-30T09:28:15;7.97;;;3.42;;
69358;SDS011;56520;49.066;8.660;2024-01-30T09:30:42;6.72;;;2.83;;
69358;SDS011;56520;49.066;8.660;2024-01-30T09:35:32;8.13;;;2.80;;
69358;SDS011;56520;49.066;8.660;2024-01-30T09:37:58;6.53;;;2.75;;
69358;SDS011;56520;49.066;8.660;2024-01-30T09:40:24;8.48;;;3.55;;
69358;SDS011;56520;49.066;8.660;2024-01-30T09:42:50;8.52;;;4.25;;
69358;SDS011;56520;49.066;8.660;2024-01-30T09:45:19;8.32;;;4.00;;
69358;SDS011;56520;49.066;8.660;2024-01-30T09:47:45;9.82;;;4.13;;
69358;SDS011;56520;49.066;8.660;2024-01-30T09:50:12;9.07;;;3.75;;
69358;SDS011;56520;49.066;8.660;2024-01-30T09:52:38;11.45;;;4.30;;
69358;SDS011;56520;49.066;8.660;2024-01-30T09:57:29;8.00;;;3.65;;
69358;SDS011;56520;49.066;8.660;2024-01-30T09:59:55;7.05;;;3.17;;
69358;SDS011;56520;49.066;8.660;2024-01-30T10:04:49;12.02;;;3.78;;
69358;SDS011;56520;49.066;8.660;2024-01-30T10:07:16;6.63;;;2.72;;
69358;SDS011;56520;49.066;8.660;2024-01-30T10:09:45;8.98;;;2.80;;
69358;SDS011;56520;49.066;8.660;2024-01-30T10:14:40;5.97;;;2.60;;
69358;SDS011;56520;49.066;8.660;2024-01-30T10:17:07;9.98;;;3.05;;
69358;SDS011;56520;49.066;8.660;2024-01-30T10:19:34;8.50;;;3.10;;
69358;SDS011;56520;49.066;8.660;2024-01-30T10:22:00;8.60;;;3.17;;
69358;SDS011;56520;49.066;8.660;2024-01-30T10:26:51;5.93;;;2.78;;
69358;SDS011;56520;49.066;8.660;2024-01-30T10:29:17;7.82;;;3.70;;
69358;SDS011;56520;49.066;8.660;2024-01-30T10:31:43;9.23;;;3.85;;
69358;SDS011;56520;49.066;8.660;2024-01-30T10:34:08;10.23;;;3.08;;
69358;SDS011;56520;49.066;8.660;2024-01-30T10:36:35;8.57;;;3.42;;
69358;SDS011;56520;49.066;8.660;2024-01-30T10:39:08;8.35;;;3.50;;
69358;SDS011;56520;49.066;8.660;2024-01-30T10:41:35;10.63;;;4.35;;
69358;SDS011;56520;49.066;8.660;2024-01-30T10:44:09;10.65;;;3.92;;
69358;SDS011;56520;49.066;8.660;2024-01-30T10:46:35;10.90;;;3.97;;
69358;SDS011;56520;49.066;8.660;2024-01-30T10:49:03;8.02;;;3.65;;
69358;SDS011;56520;49.066;8.660;2024-01-30T10:51:29;11.38;;;4.63;;
69358;SDS011;56520;49.066;8.660;2024-01-30T10:53:57;8.68;;;3.35;;
69358;SDS011;56520;49.066;8.660;2024-01-30T10:56:23;11.10;;;4.20;;
69358;SDS011;56520;49.066;8.660;2024-01-30T10:58:49;8.65;;;3.38;;
69358;SDS011;56520;49.066;8.660;2024-01-30T11:01:19;10.55;;;3.67;;
69358;SDS011;56520;49.066;8.660;2024-01-30T11:03:47;10.13;;;4.10;;
69358;SDS011;56520;49.066;8.660;2024-01-30T11:06:16;13.00;;;5.70;;
69358;SDS011;56520;49.066;8.660;2024-01-30T11:08:43;11.27;;;5.15;;
69358;SDS011;56520;49.066;8.660;2024-01-30T11:11:24;9.43;;;4.43;;
69358;SDS011;56520;49.066;8.660;2024-01-30T11:13:50;13.10;;;5.10;;
69358;SDS011;56520;49.066;8.660;2024-01-30T11:16:15;10.45;;;4.40;;
69358;SDS011;56520;49.066;8.660;2024-01-30T11:18:41;9.07;;;4.32;;
69358;SDS011;56520;49.066;8.660;2024-01-30T11:21:06;10.77;;;4.60;;
69358;SDS011;56520;49.066;8.660;2024-01-30T11:23:33;11.45;;;4.20;;
69358;SDS011;56520;49.066;8.660;2024-01-30T11:25:59;8.15;;;3.40;;
69358;SDS011;56520;49.066;8.660;2024-01-30T11:28:25;12.68;;;3.67;;
69358;SDS011;56520;49.066;8.660;2024-01-30T11:31:04;12.90;;;3.38;;
69358;SDS011;56520;49.066;8.660;2024-01-30T11:33:32;7.47;;;3.20;;
69358;SDS011;56520;49.066;8.660;2024-01-30T11:35:58;7.75;;;3.22;;
69358;SDS011;56520;49.066;8.660;2024-01-30T11:38:25;11.25;;;4.93;;
69358;SDS011;56520;49.066;8.660;2024-01-30T11:40:52;9.63;;;3.95;;
69358;SDS011;56520;49.066;8.660;2024-01-30T11:43:19;10.77;;;3.58;;
69358;SDS011;56520;49.066;8.660;2024-01-30T11:45:44;8.38;;;3.33;;
69358;SDS011;56520;49.066;8.660;2024-01-30T11:48:11;8.80;;;3.33;;
69358;SDS011;56520;49.066;8.660;2024-01-30T11:50:37;8.13;;;3.25;;
69358;SDS011;56520;49.066;8.660;2024-01-30T11:53:03;11.27;;;4.60;;
69358;SDS011;56520;49.066;8.660;2024-01-30T11:55:29;8.30;;;3.60;;
69358;SDS011;56520;49.066;8.660;2024-01-30T11:57:56;8.43;;;3.60;;
69358;SDS011;56520;49.066;8.660;2024-01-30T12:00:22;9.82;;;4.00;;
69358;SDS011;56520;49.066;8.660;2024-01-30T12:02:51;12.25;;;4.03;;
69358;SDS011;56520;49.066;8.660;2024-01-30T12:05:20;8.40;;;3.33;;
69358;SDS011;56520;49.066;8.660;2024-01-30T12:07:52;11.13;;;4.20;;
69358;SDS011;56520;49.066;8.660;2024-01-30T12:10:18;9.13;;;3.67;;
69358;SDS011;56520;49.066;8.660;2024-01-30T12:12:48;11.38;;;3.47;;
69358;SDS011;56520;49.066;8.660;2024-01-30T12:15:15;9.93;;;4.10;;
69358;SDS011;56520;49.066;8.660;2024-01-30T12:17:41;10.85;;;4.00;;
69358;SDS011;56520;49.066;8.660;2024-01-30T12:20:10;8.30;;;3.78;;
69358;SDS011;56520;49.066;8.660;2024-01-30T12:22:41;10.25;;;3.88;;
69358;SDS011;56520;49.066;8.660;2024-01-30T12:25:12;9.68;;;3.63;;
69358;SDS011;56520;49.066;8.660;2024-01-30T12:27:45;8.80;;;3.47;;
69358;SDS011;56520;49.066;8.660;2024-01-30T12:30:12;10.52;;;3.80;;
69358;SDS011;56520;49.066;8.660;2024-01-30T12:32:39;11.07;;;4.30;;
69358;SDS011;56520;49.066;8.660;2024-01-30T12:35:09;10.35;;;3.83;;
69358;SDS011;56520;49.066;8.660;2024-01-30T12:37:35;7.82;;;3.08;;
69358;SDS011;56520;49.066;8.660;2024-01-30T12:40:01;7.80;;;3.38;;
69358;SDS011;56520;49.066;8.660;2024-01-30T12:42:27;8.57;;;3.13;;
69358;SDS011;56520;49.066;8.660;2024-01-30T12:44:52;8.25;;;3.22;;
69358;SDS011;56520;49.066;8.660;2024-01-30T12:47:17;7.03;;;2.95;;
69358;SDS011;56520;49.066;8.660;2024-01-30T12:49:43;7.85;;;2.80;;
69358;SDS011;56520;49.066;8.660;2024-01-30T12:52:10;6.95;;;2.72;;
69358;SDS011;56520;49.066;8.660;2024-01-30T12:54:36;6.72;;;2.30;;
69358;SDS011;56520;49.066;8.660;2024-01-30T12:57:02;8.05;;;2.75;;
69358;SDS011;56520;49.066;8.660;2024-01-30T12:59:27;7.30;;;3.20;;
69358;SDS011;56520;49.066;8.660;2024-01-30T13:01:53;17.30;;;2.97;;
69358;SDS011;56520;49.066;8.660;2024-01-30T13:04:18;8.85;;;2.83;;
69358;SDS011;56520;49.066;8.660;2024-01-30T13:06:44;8.95;;;2.92;;
69358;SDS011;56520;49.066;8.660;2024-01-30T13:09:09;7.22;;;2.92;;
69358;SDS011;56520;49.066;8.660;2024-01-30T13:11:35;6.38;;;2.75;;
69358;SDS011;56520;49.066;8.660;2024-01-30T13:14:00;9.68;;;2.60;;
69358;SDS011;56520;49.066;8.660;2024-01-30T13:16:26;8.27;;;2.45;;
69358;SDS011;56520;49.066;8.660;2024-01-30T13:18:51;6.68;;;3.05;;
69358;SDS011;56520;49.066;8.660;2024-01-30T13:21:17;8.02;;;3.55;;
69358;SDS011;56520;49.066;8.660;2024-01-30T13:23:42;6.85;;;2.67;;
69358;SDS011;56520;49.066;8.660;2024-01-30T13:26:08;6.40;;;2.53;;
69358;SDS011;56520;49.066;8.660;2024-01-30T13:28:33;12.30;;;3.50;;
69358;SDS011;56520;49.066;8.660;2024-01-30T13:30:59;7.43;;;2.78;;
69358;SDS011;56520;49.066;8.660;2024-01-30T13:33:24;7.22;;;2.70;;
69358;SDS011;56520;49.066;8.660;2024-01-30T13:35:51;9.30;;;3.38;;
69358;SDS011;56520;49.066;8.660;2024-01-30T13:38:16;12.05;;;4.38;;
69358;SDS011;56520;49.066;8.660;2024-01-30T13:40:42;9.25;;;3.40;;
69358;SDS011;56520;49.066;8.660;2024-01-30T13:43:07;7.57;;;3.13;;
69358;SDS011;56520;49.066;8.660;2024-01-30T13:45:33;7.70;;;3.20;;
69358;SDS011;56520;49.066;8.660;2024-01-30T13:47:58;7.85;;;2.88;;
69358;SDS011;56520;49.066;8.660;2024-01-30T13:50:24;8.90;;;2.95;;
69358;SDS011;56520;49.066;8.660;2024-01-30T13:52:49;9.52;;;3.42;;
69358;SDS011;56520;49.066;8.660;2024-01-30T13:55:14;9.65;;;3.50;;
69358;SDS011;56520;49.066;8.660;2024-01-30T13:57:40;12.52;;;5.60;;
69358;SDS011;56520;49.066;8.660;2024-01-30T14:00:06;12.57;;;4.70;;
69358;SDS011;56520;49.066;8.660;2024-01-30T14:02:32;9.30;;;3.30;;
69358;SDS011;56520;49.066;8.660;2024-01-30T14:04:58;10.25;;;3.90;;
69358;SDS011;56520;49.066;8.660;2024-01-30T14:07:23;9.82;;;4.10;;
69358;SDS011;56520;49.066;8.660;2024-01-30T14:09:49;13.48;;;4.15;;
69358;SDS011;56520;49.066;8.660;2024-01-30T14:12:14;8.20;;;3.28;;
69358;SDS011;56520;49.066;8.660;2024-01-30T14:14:40;7.30;;;2.65;;
69358;SDS011;56520;49.066;8.660;2024-01-30T14:17:05;7.15;;;2.55;;
69358;SDS011;56520;49.066;8.660;2024-01-30T14:19:32;8.20;;;2.90;;
69358;SDS011;56520;49.066;8.660;2024-01-30T14:21:58;5.95;;;2.25;;
69358;SDS011;56520;49.066;8.660;2024-01-30T14:24:23;9.70;;;2.97;;
69358;SDS011;56520;49.066;8.660;2024-01-30T14:26:49;6.88;;;2.72;;
69358;SDS011;56520;49.066;8.660;2024-01-30T14:29:14;9.23;;;3.10;;
69358;SDS011;56520;49.066;8.660;2024-01-30T14:31:39;6.72;;;2.67;;
69358;SDS011;56520;49.066;8.660;2024-01-30T14:34:05;8.40;;;2.53;;
69358;SDS011;56520;49.066;8.660;2024-01-30T14:36:30;7.35;;;2.90;;
69358;SDS011;56520;49.066;8.660;2024-01-30T14:38:56;7.18;;;2.83;;
69358;SDS011;56520;49.066;8.660;2024-01-30T14:41:21;9.77;;;3.45;;
69358;SDS011;56520;49.066;8.660;2024-01-30T14:43:47;11.82;;;5.82;;
69358;SDS011;56520;49.066;8.660;2024-01-30T14:46:12;10.10;;;4.10;;
69358;SDS011;56520;49.066;8.660;2024-01-30T14:48:38;7.03;;;2.88;;
69358;SDS011;56520;49.066;8.660;2024-01-30T14:51:03;8.57;;;3.10;;
69358;SDS011;56520;49.066;8.660;2024-01-30T14:53:29;11.48;;;3.35;;
69358;SDS011;56520;49.066;8.660;2024-01-30T14:55:54;7.05;;;2.75;;
69358;SDS011;56520;49.066;8.660;2024-01-30T14:58:20;7.72;;;3.00;;
69358;SDS011;56520;49.066;8.660;2024-01-30T15:00:45;8.07;;;3.10;;
69358;SDS011;56520;49.066;8.660;2024-01-30T15:03:10;8.30;;;3.10;;
69358;SDS011;56520;49.066;8.660;2024-01-30T15:05:36;6.97;;;2.97;;
69358;SDS011;56520;49.066;8.660;2024-01-30T15:08:01;8.48;;;2.85;;
69358;SDS011;56520;49.066;8.660;2024-01-30T15:10:27;7.70;;;2.92;;
69358;SDS011;56520;49.066;8.660;2024-01-30T15:12:52;8.05;;;3.13;;
69358;SDS011;56520;49.066;8.660;2024-01-30T15:15:18;8.25;;;2.60;;
69358;SDS011;56520;49.066;8.660;2024-01-30T15:17:43;13.80;;;4.53;;
69358;SDS011;56520;49.066;8.660;2024-01-30T15:20:09;9.52;;;3.65;;
69358;SDS011;56520;49.066;8.660;2024-01-30T15:22:34;11.27;;;3.47;;
69358;SDS011;56520;49.066;8.660;2024-01-30T15:25:00;8.82;;;3.10;;